sensor_id;sensor_type;location;lat;lon;timestamp;pressure;altitude;pressure_sealevel;temperature;humidity
63607;BME280;71992;52.478;-1.918;2023-09-19T00:01:08;98730.94;;;11.88;85.81
63607;BME280;71992;52.478;-1.918;2023-09-19T00:03:40;98724.00;;;11.85;85.46
63607;BME280;71992;52.478;-1.918;2023-09-19T00:06:10;98725.97;;;11.83;85.75
63607;BME280;71992;52.478;-1.918;2023-09-19T00:08:43;98719.03;;;11.81;85.58
63607;BME280;71992;52.478;-1.918;2023-09-19T00:11:19;98727.59;;;11.75;85.48
63607;BME280;71992;52.478;-1.918;2023-09-19T00:13:53;98729.56;;;11.73;85.40
63607;BME280;71992;52.478;-1.918;2023-09-19T00:16:27;98716.59;;;11.68;85.46
63607;BME280;71992;52.478;-1.918;2023-09-19T00:18:57;98722.19;;;11.65;85.39
63607;BME280;71992;52.478;-1.918;2023-09-19T00:21:34;98713.59;;;11.61;85.22
63607;BME280;71992;52.478;-1.918;2023-09-19T00:24:06;98715.28;;;11.62;85.51
63607;BME280;71992;52.478;-1.918;2023-09-19T00:26:39;98721.75;;;11.60;85.29
63607;BME280;71992;52.478;-1.918;2023-09-19T00:29:11;98718.94;;;11.61;85.38
63607;BME280;71992;52.478;-1.918;2023-09-19T00:31:44;98724.41;;;11.60;85.41
63607;BME280;71992;52.478;-1.918;2023-09-19T00:34:14;98730.75;;;11.59;85.28
63607;BME280;71992;52.478;-1.918;2023-09-19T00:36:48;98718.34;;;11.58;85.36
63607;BME280;71992;52.478;-1.918;2023-09-19T00:39:23;98715.69;;;11.58;85.43
63607;BME280;71992;52.478;-1.918;2023-09-19T00:41:58;98714.13;;;11.55;86.02
63607;BME280;71992;52.478;-1.918;2023-09-19T00:44:32;98713.16;;;11.56;85.22
63607;BME280;71992;52.478;-1.918;2023-09-19T00:47:05;98700.19;;;11.52;85.66
63607;BME280;71992;52.478;-1.918;2023-09-19T00:49:37;98707.81;;;11.56;85.79
63607;BME280;71992;52.478;-1.918;2023-09-19T00:52:07;98708.66;;;11.57;85.72
63607;BME280;71992;52.478;-1.918;2023-09-19T00:54:38;98701.59;;;11.56;85.37
63607;BME280;71992;52.478;-1.918;2023-09-19T00:57:12;98708.38;;;11.60;85.49
63607;BME280;71992;52.478;-1.918;2023-09-19T00:59:48;98711.06;;;11.60;85.20
63607;BME280;71992;52.478;-1.918;2023-09-19T01:02:21;98707.94;;;11.55;85.25
63607;BME280;71992;52.478;-1.918;2023-09-19T01:04:51;98711.59;;;11.54;85.67
63607;BME280;71992;52.478;-1.918;2023-09-19T01:07:22;98709.63;;;11.56;85.51
63607;BME280;71992;52.478;-1.918;2023-09-19T01:09:53;98710.72;;;11.53;85.36
63607;BME280;71992;52.478;-1.918;2023-09-19T01:12:41;98709.75;;;11.54;85.03
63607;BME280;71992;52.478;-1.918;2023-09-19T01:15:22;98708.94;;;11.54;84.82
63607;BME280;71992;52.478;-1.918;2023-09-19T01:18:08;98711.72;;;11.52;85.32
63607;BME280;71992;52.478;-1.918;2023-09-19T01:20:46;98705.53;;;11.52;85.34
63607;BME280;71992;52.478;-1.918;2023-09-19T01:23:24;98702.47;;;11.56;85.25
63607;BME280;71992;52.478;-1.918;2023-09-19T01:26:06;98698.06;;;11.55;85.55
63607;BME280;71992;52.478;-1.918;2023-09-19T01:28:53;98706.25;;;11.54;85.41
63607;BME280;71992;52.478;-1.918;2023-09-19T01:31:33;98699.78;;;11.56;85.56
63607;BME280;71992;52.478;-1.918;2023-09-19T01:34:08;98685.56;;;11.56;84.94
63607;BME280;71992;52.478;-1.918;2023-09-19T01:36:39;98693.72;;;11.54;85.21
63607;BME280;71992;52.478;-1.918;2023-09-19T01:39:11;98686.66;;;11.53;85.20
63607;BME280;71992;52.478;-1.918;2023-09-19T01:41:58;98691.16;;;11.53;85.49
63607;BME280;71992;52.478;-1.918;2023-09-19T01:44:40;98698.22;;;11.54;85.25
63607;BME280;71992;52.478;-1.918;2023-09-19T01:47:25;98696.53;;;11.53;85.00
63607;BME280;71992;52.478;-1.918;2023-09-19T01:50:09;98696.66;;;11.51;85.37
63607;BME280;71992;52.478;-1.918;2023-09-19T01:52:47;98690.72;;;11.47;85.55
63607;BME280;71992;52.478;-1.918;2023-09-19T01:55:19;98692.56;;;11.47;85.27
63607;BME280;71992;52.478;-1.918;2023-09-19T01:57:57;98698.16;;;11.44;85.48
63607;BME280;71992;52.478;-1.918;2023-09-19T02:00:32;98689.88;;;11.47;85.78
63607;BME280;71992;52.478;-1.918;2023-09-19T02:03:08;98696.91;;;11.48;85.60
63607;BME280;71992;52.478;-1.918;2023-09-19T02:05:40;98702.16;;;11.49;85.63
63607;BME280;71992;52.478;-1.918;2023-09-19T02:08:11;98698.59;;;11.49;85.36
63607;BME280;71992;52.478;-1.918;2023-09-19T02:10:42;98700.44;;;11.48;85.42
63607;BME280;71992;52.478;-1.918;2023-09-19T02:13:16;98692.88;;;11.54;85.40
63607;BME280;71992;52.478;-1.918;2023-09-19T02:15:48;98692.50;;;11.58;84.77
63607;BME280;71992;52.478;-1.918;2023-09-19T02:18:21;98686.25;;;11.58;84.91
63607;BME280;71992;52.478;-1.918;2023-09-19T02:20:53;98690.78;;;11.57;85.27
63607;BME280;71992;52.478;-1.918;2023-09-19T02:23:26;98679.81;;;11.60;85.05
63607;BME280;71992;52.478;-1.918;2023-09-19T02:25:58;98673.91;;;11.57;84.76
63607;BME280;71992;52.478;-1.918;2023-09-19T02:28:29;98679.81;;;11.60;85.01
63607;BME280;71992;52.478;-1.918;2023-09-19T02:31:00;98684.31;;;11.60;85.06
63607;BME280;71992;52.478;-1.918;2023-09-19T02:33:35;98679.69;;;11.62;85.31
63607;BME280;71992;52.478;-1.918;2023-09-19T02:36:07;98670.53;;;11.64;85.27
63607;BME280;71992;52.478;-1.918;2023-09-19T02:38:39;98675.03;;;11.64;85.21
63607;BME280;71992;52.478;-1.918;2023-09-19T02:41:10;98669.69;;;11.64;85.46
63607;BME280;71992;52.478;-1.918;2023-09-19T02:43:41;98665.06;;;11.66;86.04
63607;BME280;71992;52.478;-1.918;2023-09-19T02:46:13;98665.78;;;11.68;86.42
63607;BME280;71992;52.478;-1.918;2023-09-19T02:48:47;98664.06;;;11.67;86.58
63607;BME280;71992;52.478;-1.918;2023-09-19T02:51:20;98662.28;;;11.67;86.77
63607;BME280;71992;52.478;-1.918;2023-09-19T02:53:51;98656.06;;;11.67;87.28
63607;BME280;71992;52.478;-1.918;2023-09-19T02:56:23;98648.03;;;11.67;87.52
63607;BME280;71992;52.478;-1.918;2023-09-19T02:58:55;98656.06;;;11.67;87.58
63607;BME280;71992;52.478;-1.918;2023-09-19T03:01:30;98636.09;;;11.71;88.55
63607;BME280;71992;52.478;-1.918;2023-09-19T03:04:04;98640.31;;;11.74;88.75
63607;BME280;71992;52.478;-1.918;2023-09-19T03:06:37;98627.09;;;11.72;88.86
63607;BME280;71992;52.478;-1.918;2023-09-19T03:09:08;98640.06;;;11.77;89.14
63607;BME280;71992;52.478;-1.918;2023-09-19T03:11:40;98639.91;;;11.78;88.96
63607;BME280;71992;52.478;-1.918;2023-09-19T03:14:12;98622.72;;;11.81;89.76
63607;BME280;71992;52.478;-1.918;2023-09-19T03:16:44;98597.56;;;11.83;89.67
63607;BME280;71992;52.478;-1.918;2023-09-19T03:19:19;98595.88;;;11.82;90.46
63607;BME280;71992;52.478;-1.918;2023-09-19T03:21:52;98609.81;;;11.86;90.28
63607;BME280;71992;52.478;-1.918;2023-09-19T03:24:25;98607.03;;;11.87;90.77
63607;BME280;71992;52.478;-1.918;2023-09-19T03:26:58;98601.66;;;11.87;90.69
63607;BME280;71992;52.478;-1.918;2023-09-19T03:29:29;98597.03;;;11.89;90.92
63607;BME280;71992;52.478;-1.918;2023-09-19T03:32:00;98587.19;;;11.90;90.97
63607;BME280;71992;52.478;-1.918;2023-09-19T03:34:36;98592.56;;;11.90;90.96
63607;BME280;71992;52.478;-1.918;2023-09-19T03:37:09;98588.88;;;11.91;91.50
63607;BME280;71992;52.478;-1.918;2023-09-19T03:39:40;98574.25;;;11.95;91.12
63607;BME280;71992;52.478;-1.918;2023-09-19T03:42:11;98577.75;;;11.96;91.00
63607;BME280;71992;52.478;-1.918;2023-09-19T03:44:42;98568.06;;;11.95;91.11
63607;BME280;71992;52.478;-1.918;2023-09-19T03:47:13;98573.41;;;11.95;91.17
63607;BME280;71992;52.478;-1.918;2023-09-19T03:49:47;98547.22;;;11.98;91.38
63607;BME280;71992;52.478;-1.918;2023-09-19T03:52:17;98542.69;;;11.99;91.31
63607;BME280;71992;52.478;-1.918;2023-09-19T03:54:48;98543.28;;;12.02;91.36
63607;BME280;71992;52.478;-1.918;2023-09-19T03:57:19;98543.16;;;12.04;91.60
63607;BME280;71992;52.478;-1.918;2023-09-19T03:59:51;98542.84;;;12.07;91.60
63607;BME280;71992;52.478;-1.918;2023-09-19T04:02:23;98542.72;;;12.08;91.54
63607;BME280;71992;52.478;-1.918;2023-09-19T04:05:03;98523.41;;;12.05;92.09
63607;BME280;71992;52.478;-1.918;2023-09-19T04:07:37;98527.63;;;12.07;92.58
63607;BME280;71992;52.478;-1.918;2023-09-19T04:10:09;98521.16;;;12.00;94.32
63607;BME280;71992;52.478;-1.918;2023-09-19T04:12:40;98520.88;;;12.03;94.97
63607;BME280;71992;52.478;-1.918;2023-09-19T04:15:11;98505.81;;;12.02;96.12
63607;BME280;71992;52.478;-1.918;2023-09-19T04:17:42;98488.75;;;12.03;97.55
63607;BME280;71992;52.478;-1.918;2023-09-19T04:20:15;98496.94;;;12.02;97.28
63607;BME280;71992;52.478;-1.918;2023-09-19T04:22:47;98485.53;;;12.00;98.81
63607;BME280;71992;52.478;-1.918;2023-09-19T04:25:18;98486.25;;;12.02;98.49
63607;BME280;71992;52.478;-1.918;2023-09-19T04:27:49;98482.44;;;12.04;98.36
63607;BME280;71992;52.478;-1.918;2023-09-19T04:30:19;98489.06;;;12.00;97.91
63607;BME280;71992;52.478;-1.918;2023-09-19T04:32:50;98486.09;;;11.94;97.58
63607;BME280;71992;52.478;-1.918;2023-09-19T04:35:23;98481.03;;;11.90;97.54
63607;BME280;71992;52.478;-1.918;2023-09-19T04:37:54;98481.28;;;11.87;97.58
63607;BME280;71992;52.478;-1.918;2023-09-19T04:40:25;98475.94;;;11.87;97.50
63607;BME280;71992;52.478;-1.918;2023-09-19T04:42:58;98476.91;;;11.86;98.51
63607;BME280;71992;52.478;-1.918;2023-09-19T04:45:29;98471.47;;;11.88;97.98
63607;BME280;71992;52.478;-1.918;2023-09-19T04:48:00;98458.78;;;11.90;98.81
63607;BME280;71992;52.478;-1.918;2023-09-19T04:50:33;98462.84;;;11.94;98.91
63607;BME280;71992;52.478;-1.918;2023-09-19T04:53:04;98454.00;;;11.94;99.12
63607;BME280;71992;52.478;-1.918;2023-09-19T04:55:36;98438.78;;;11.94;99.69
63607;BME280;71992;52.478;-1.918;2023-09-19T04:58:06;98434.00;;;11.88;100.00
63607;BME280;71992;52.478;-1.918;2023-09-19T05:00:35;98428.38;;;11.91;100.00
63607;BME280;71992;52.478;-1.918;2023-09-19T05:03:05;98412.44;;;11.89;100.00
63607;BME280;71992;52.478;-1.918;2023-09-19T05:05:39;98417.66;;;11.91;100.00
63607;BME280;71992;52.478;-1.918;2023-09-19T05:08:11;98404.16;;;11.93;100.00
63607;BME280;71992;52.478;-1.918;2023-09-19T05:10:42;98395.84;;;11.96;100.00
63607;BME280;71992;52.478;-1.918;2023-09-19T05:13:15;98393.88;;;11.98;100.00
63607;BME280;71992;52.478;-1.918;2023-09-19T05:15:45;98378.78;;;11.97;100.00
63607;BME280;71992;52.478;-1.918;2023-09-19T05:18:17;98373.16;;;12.00;100.00
63607;BME280;71992;52.478;-1.918;2023-09-19T05:20:52;98380.91;;;12.03;100.00
63607;BME280;71992;52.478;-1.918;2023-09-19T05:23:23;98369.94;;;12.06;100.00
63607;BME280;71992;52.478;-1.918;2023-09-19T05:25:55;98375.13;;;12.07;100.00
63607;BME280;71992;52.478;-1.918;2023-09-19T05:28:27;98374.84;;;12.10;100.00
63607;BME280;71992;52.478;-1.918;2023-09-19T05:31:00;98359.47;;;12.12;100.00
63607;BME280;71992;52.478;-1.918;2023-09-19T05:33:32;98354.81;;;12.15;100.00
63607;BME280;71992;52.478;-1.918;2023-09-19T05:36:05;98340.16;;;12.19;100.00
63607;BME280;71992;52.478;-1.918;2023-09-19T05:38:37;98328.63;;;12.18;100.00
63607;BME280;71992;52.478;-1.918;2023-09-19T05:41:09;98344.69;;;12.18;100.00
63607;BME280;71992;52.478;-1.918;2023-09-19T05:43:41;98343.41;;;12.22;100.00
63607;BME280;71992;52.478;-1.918;2023-09-19T05:46:12;98327.88;;;12.26;100.00
63607;BME280;71992;52.478;-1.918;2023-09-19T05:48:44;98330.56;;;12.26;100.00
63607;BME280;71992;52.478;-1.918;2023-09-19T05:51:20;98326.75;;;12.28;100.00
63607;BME280;71992;52.478;-1.918;2023-09-19T05:53:50;98320.53;;;12.28;100.00
63607;BME280;71992;52.478;-1.918;2023-09-19T05:56:22;98322.25;;;12.29;100.00
63607;BME280;71992;52.478;-1.918;2023-09-19T05:58:53;98311.38;;;12.30;100.00
63607;BME280;71992;52.478;-1.918;2023-09-19T06:01:24;98309.41;;;12.32;100.00
63607;BME280;71992;52.478;-1.918;2023-09-19T06:03:55;98299.41;;;12.35;100.00
63607;BME280;71992;52.478;-1.918;2023-09-19T06:06:30;98295.56;;;12.37;100.00
63607;BME280;71992;52.478;-1.918;2023-09-19T06:09:01;98284.88;;;12.37;100.00
63607;BME280;71992;52.478;-1.918;2023-09-19T06:11:33;98281.34;;;12.37;100.00
63607;BME280;71992;52.478;-1.918;2023-09-19T06:14:04;98279.69;;;12.36;100.00
63607;BME280;71992;52.478;-1.918;2023-09-19T06:16:38;98270.78;;;12.35;100.00
63607;BME280;71992;52.478;-1.918;2023-09-19T06:19:09;98267.13;;;12.36;100.00
63607;BME280;71992;52.478;-1.918;2023-09-19T06:21:42;98258.09;;;12.37;100.00
63607;BME280;71992;52.478;-1.918;2023-09-19T06:24:14;98264.84;;;12.41;100.00
63607;BME280;71992;52.478;-1.918;2023-09-19T06:26:45;98256.81;;;12.41;100.00
63607;BME280;71992;52.478;-1.918;2023-09-19T06:29:21;98263.44;;;12.47;100.00
63607;BME280;71992;52.478;-1.918;2023-09-19T06:31:52;98256.06;;;12.49;100.00
63607;BME280;71992;52.478;-1.918;2023-09-19T06:34:23;98260.28;;;12.51;100.00
63607;BME280;71992;52.478;-1.918;2023-09-19T06:36:56;98254.78;;;12.53;100.00
63607;BME280;71992;52.478;-1.918;2023-09-19T06:39:27;98254.31;;;12.58;100.00
63607;BME280;71992;52.478;-1.918;2023-09-19T06:41:58;98254.88;;;12.61;100.00
63607;BME280;71992;52.478;-1.918;2023-09-19T06:44:29;98242.19;;;12.63;100.00
63607;BME280;71992;52.478;-1.918;2023-09-19T06:47:00;98247.09;;;12.68;100.00
63607;BME280;71992;52.478;-1.918;2023-09-19T06:49:31;98243.72;;;12.66;100.00
63607;BME280;71992;52.478;-1.918;2023-09-19T06:52:05;98240.03;;;12.67;100.00
63607;BME280;71992;52.478;-1.918;2023-09-19T06:54:36;98248.75;;;12.69;100.00
63607;BME280;71992;52.478;-1.918;2023-09-19T06:57:07;98246.94;;;12.69;100.00
63607;BME280;71992;52.478;-1.918;2023-09-19T06:59:39;98231.53;;;12.71;100.00
63607;BME280;71992;52.478;-1.918;2023-09-19T07:02:10;98239.97;;;12.77;100.00
63607;BME280;71992;52.478;-1.918;2023-09-19T07:04:41;98244.88;;;12.81;100.00
63607;BME280;71992;52.478;-1.918;2023-09-19T07:07:14;98235.59;;;12.75;100.00
63607;BME280;71992;52.478;-1.918;2023-09-19T07:09:45;98242.44;;;12.88;100.00
63607;BME280;71992;52.478;-1.918;2023-09-19T07:12:19;98240.97;;;12.93;100.00
63607;BME280;71992;52.478;-1.918;2023-09-19T07:14:49;98250.41;;;12.98;100.00
63607;BME280;71992;52.478;-1.918;2023-09-19T07:17:20;98248.56;;;12.98;100.00
63607;BME280;71992;52.478;-1.918;2023-09-19T07:19:52;98247.25;;;13.02;100.00
63607;BME280;71992;52.478;-1.918;2023-09-19T07:22:26;98246.94;;;13.05;100.00
63607;BME280;71992;52.478;-1.918;2023-09-19T07:24:57;98232.41;;;13.08;100.00
63607;BME280;71992;52.478;-1.918;2023-09-19T07:27:28;98224.34;;;13.08;100.00
63607;BME280;71992;52.478;-1.918;2023-09-19T07:29:59;98237.09;;;13.06;100.00
63607;BME280;71992;52.478;-1.918;2023-09-19T07:32:31;98233.72;;;13.04;100.00
63607;BME280;71992;52.478;-1.918;2023-09-19T07:35:03;98233.03;;;13.02;100.00
63607;BME280;71992;52.478;-1.918;2023-09-19T07:37:36;98226.66;;;13.03;100.00
63607;BME280;71992;52.478;-1.918;2023-09-19T07:40:10;98218.63;;;13.03;100.00
63607;BME280;71992;52.478;-1.918;2023-09-19T07:42:41;98231.88;;;13.04;100.00
63607;BME280;71992;52.478;-1.918;2023-09-19T07:45:14;98235.38;;;13.05;100.00
63607;BME280;71992;52.478;-1.918;2023-09-19T07:47:45;98219.16;;;13.06;100.00
63607;BME280;71992;52.478;-1.918;2023-09-19T07:50:19;98216.31;;;13.08;100.00
63607;BME280;71992;52.478;-1.918;2023-09-19T07:52:53;98205.44;;;13.09;100.00
63607;BME280;71992;52.478;-1.918;2023-09-19T07:55:24;98211.50;;;13.11;100.00
63607;BME280;71992;52.478;-1.918;2023-09-19T07:57:54;98201.31;;;13.15;100.00
63607;BME280;71992;52.478;-1.918;2023-09-19T08:00:26;98202.69;;;13.19;100.00
63607;BME280;71992;52.478;-1.918;2023-09-19T08:02:56;98198.69;;;13.23;100.00
63607;BME280;71992;52.478;-1.918;2023-09-19T08:05:27;98194.84;;;13.26;100.00
63607;BME280;71992;52.478;-1.918;2023-09-19T08:08:00;98187.06;;;13.32;100.00
63607;BME280;71992;52.478;-1.918;2023-09-19T08:10:32;98166.16;;;13.36;100.00
63607;BME280;71992;52.478;-1.918;2023-09-19T08:13:03;98161.63;;;13.36;100.00
63607;BME280;71992;52.478;-1.918;2023-09-19T08:15:43;98163.00;;;13.41;100.00
63607;BME280;71992;52.478;-1.918;2023-09-19T08:18:14;98151.25;;;13.42;100.00
63607;BME280;71992;52.478;-1.918;2023-09-19T08:20:49;98152.78;;;13.44;100.00
63607;BME280;71992;52.478;-1.918;2023-09-19T08:23:28;98156.69;;;13.50;100.00
63607;BME280;71992;52.478;-1.918;2023-09-19T08:26:00;98139.59;;;13.51;100.00
63607;BME280;71992;52.478;-1.918;2023-09-19T08:28:34;98125.19;;;13.52;100.00
63607;BME280;71992;52.478;-1.918;2023-09-19T08:31:08;98123.34;;;13.52;100.00
63607;BME280;71992;52.478;-1.918;2023-09-19T08:33:39;98128.09;;;13.58;100.00
63607;BME280;71992;52.478;-1.918;2023-09-19T08:36:12;98133.81;;;13.64;100.00
63607;BME280;71992;52.478;-1.918;2023-09-19T08:38:45;98150.09;;;13.70;100.00
63607;BME280;71992;52.478;-1.918;2023-09-19T08:41:19;98144.78;;;13.78;100.00
63607;BME280;71992;52.478;-1.918;2023-09-19T08:43:49;98129.41;;;13.89;100.00
63607;BME280;71992;52.478;-1.918;2023-09-19T08:46:25;98130.94;;;13.99;100.00
63607;BME280;71992;52.478;-1.918;2023-09-19T08:49:03;98132.81;;;14.07;100.00
63607;BME280;71992;52.478;-1.918;2023-09-19T08:51:43;98116.91;;;14.14;100.00
63607;BME280;71992;52.478;-1.918;2023-09-19T08:54:22;98106.88;;;14.24;100.00
63607;BME280;71992;52.478;-1.918;2023-09-19T08:56:54;98107.22;;;14.37;100.00
63607;BME280;71992;52.478;-1.918;2023-09-19T08:59:29;98103.94;;;14.68;100.00
63607;BME280;71992;52.478;-1.918;2023-09-19T09:02:03;98106.44;;;14.78;100.00
63607;BME280;71992;52.478;-1.918;2023-09-19T09:04:35;98121.25;;;14.90;100.00
63607;BME280;71992;52.478;-1.918;2023-09-19T09:07:10;98136.53;;;15.06;100.00
63607;BME280;71992;52.478;-1.918;2023-09-19T09:09:44;98124.09;;;15.13;100.00
63607;BME280;71992;52.478;-1.918;2023-09-19T09:12:16;98140.91;;;15.15;100.00
63607;BME280;71992;52.478;-1.918;2023-09-19T09:14:48;98146.09;;;15.33;100.00
63607;BME280;71992;52.478;-1.918;2023-09-19T09:17:20;98148.94;;;15.40;100.00
63607;BME280;71992;52.478;-1.918;2023-09-19T09:19:53;98148.44;;;15.36;100.00
63607;BME280;71992;52.478;-1.918;2023-09-19T09:22:24;98158.34;;;15.44;100.00
63607;BME280;71992;52.478;-1.918;2023-09-19T09:24:58;98145.56;;;15.46;100.00
63607;BME280;71992;52.478;-1.918;2023-09-19T09:27:31;98148.91;;;15.48;100.00
63607;BME280;71992;52.478;-1.918;2023-09-19T09:30:03;98152.28;;;15.50;100.00
63607;BME280;71992;52.478;-1.918;2023-09-19T09:32:34;98142.69;;;15.56;100.00
63607;BME280;71992;52.478;-1.918;2023-09-19T09:35:07;98130.03;;;15.64;100.00
63607;BME280;71992;52.478;-1.918;2023-09-19T09:37:43;98127.88;;;15.60;100.00
63607;BME280;71992;52.478;-1.918;2023-09-19T09:40:17;98133.09;;;15.61;100.00
63607;BME280;71992;52.478;-1.918;2023-09-19T09:43:24;98137.78;;;15.68;100.00
63607;BME280;71992;52.478;-1.918;2023-09-19T09:46:13;98131.22;;;15.70;100.00
63607;BME280;71992;52.478;-1.918;2023-09-19T09:48:59;98142.84;;;15.79;100.00
63607;BME280;71992;52.478;-1.918;2023-09-19T09:51:44;98145.16;;;15.82;100.00
63607;BME280;71992;52.478;-1.918;2023-09-19T09:54:17;98138.06;;;15.89;100.00
63607;BME280;71992;52.478;-1.918;2023-09-19T09:56:55;98159.94;;;15.94;100.00
63607;BME280;71992;52.478;-1.918;2023-09-19T09:59:45;98153.84;;;16.00;100.00
63607;BME280;71992;52.478;-1.918;2023-09-19T10:02:18;98147.47;;;16.01;100.00
63607;BME280;71992;52.478;-1.918;2023-09-19T10:04:52;98163.25;;;16.04;100.00
63607;BME280;71992;52.478;-1.918;2023-09-19T10:07:28;98155.84;;;16.06;100.00
63607;BME280;71992;52.478;-1.918;2023-09-19T10:10:01;98141.72;;;16.04;100.00
63607;BME280;71992;52.478;-1.918;2023-09-19T10:12:44;98154.03;;;15.99;100.00
63607;BME280;71992;52.478;-1.918;2023-09-19T10:15:17;98154.88;;;15.99;100.00
63607;BME280;71992;52.478;-1.918;2023-09-19T10:17:48;98151.81;;;16.02;100.00
63607;BME280;71992;52.478;-1.918;2023-09-19T10:20:25;98140.53;;;16.07;100.00
63607;BME280;71992;52.478;-1.918;2023-09-19T10:23:07;98137.84;;;16.07;100.00
63607;BME280;71992;52.478;-1.918;2023-09-19T10:25:43;98147.25;;;16.11;100.00
63607;BME280;71992;52.478;-1.918;2023-09-19T10:28:19;98164.22;;;16.12;100.00
63607;BME280;71992;52.478;-1.918;2023-09-19T10:30:52;98160.84;;;16.18;100.00
63607;BME280;71992;52.478;-1.918;2023-09-19T10:33:35;98148.06;;;16.20;100.00
63607;BME280;71992;52.478;-1.918;2023-09-19T10:36:20;98158.47;;;16.23;100.00
63607;BME280;71992;52.478;-1.918;2023-09-19T10:38:55;98159.66;;;16.20;100.00
63607;BME280;71992;52.478;-1.918;2023-09-19T10:41:31;98165.22;;;16.19;100.00
63607;BME280;71992;52.478;-1.918;2023-09-19T10:44:06;98168.41;;;16.22;100.00
63607;BME280;71992;52.478;-1.918;2023-09-19T10:46:37;98172.28;;;16.20;100.00
63607;BME280;71992;52.478;-1.918;2023-09-19T10:49:10;98168.25;;;16.24;100.00
63607;BME280;71992;52.478;-1.918;2023-09-19T10:51:43;98172.75;;;16.23;100.00
63607;BME280;71992;52.478;-1.918;2023-09-19T10:54:18;98171.75;;;16.24;100.00
63607;BME280;71992;52.478;-1.918;2023-09-19T10:56:54;98179.00;;;16.24;100.00
63607;BME280;71992;52.478;-1.918;2023-09-19T10:59:29;98193.63;;;16.21;100.00
63607;BME280;71992;52.478;-1.918;2023-09-19T11:02:16;98190.31;;;16.19;100.00
63607;BME280;71992;52.478;-1.918;2023-09-19T11:04:47;98193.84;;;16.20;100.00
63607;BME280;71992;52.478;-1.918;2023-09-19T11:07:18;98197.72;;;16.17;100.00
63607;BME280;71992;52.478;-1.918;2023-09-19T11:09:50;98202.09;;;16.18;100.00
63607;BME280;71992;52.478;-1.918;2023-09-19T11:12:49;98200.06;;;16.20;100.00
63607;BME280;71992;52.478;-1.918;2023-09-19T11:18:59;98202.22;;;16.25;100.00
63607;BME280;71992;52.478;-1.918;2023-09-19T11:21:53;98202.06;;;16.26;100.00
63607;BME280;71992;52.478;-1.918;2023-09-19T11:24:28;98193.78;;;16.28;100.00
63607;BME280;71992;52.478;-1.918;2023-09-19T11:27:16;98185.69;;;16.28;100.00
63607;BME280;71992;52.478;-1.918;2023-09-19T11:29:48;98192.13;;;16.27;100.00
63607;BME280;71992;52.478;-1.918;2023-09-19T11:36:03;98186.38;;;16.30;100.00
63607;BME280;71992;52.478;-1.918;2023-09-19T11:38:59;98196.97;;;16.32;100.00
63607;BME280;71992;52.478;-1.918;2023-09-19T11:41:37;98198.19;;;16.29;100.00
63607;BME280;71992;52.478;-1.918;2023-09-19T11:44:32;98202.72;;;16.28;100.00
63607;BME280;71992;52.478;-1.918;2023-09-19T11:47:08;98213.81;;;16.34;100.00
63607;BME280;71992;52.478;-1.918;2023-09-19T11:49:41;98206.72;;;16.33;100.00
63607;BME280;71992;52.478;-1.918;2023-09-19T11:52:21;98198.00;;;16.31;100.00
63607;BME280;71992;52.478;-1.918;2023-09-19T11:54:55;98200.56;;;16.24;100.00
63607;BME280;71992;52.478;-1.918;2023-09-19T11:57:28;98200.72;;;16.22;100.00
63607;BME280;71992;52.478;-1.918;2023-09-19T12:00:01;98186.44;;;16.22;100.00
63607;BME280;71992;52.478;-1.918;2023-09-19T12:02:42;98199.91;;;16.22;100.00
63607;BME280;71992;52.478;-1.918;2023-09-19T12:05:28;98185.41;;;16.23;100.00
63607;BME280;71992;52.478;-1.918;2023-09-19T12:08:04;98197.66;;;16.25;100.00
63607;BME280;71992;52.478;-1.918;2023-09-19T12:10:45;98204.41;;;16.29;100.00
63607;BME280;71992;52.478;-1.918;2023-09-19T12:13:17;98213.16;;;16.32;100.00
63607;BME280;71992;52.478;-1.918;2023-09-19T12:15:48;98209.63;;;16.31;100.00
63607;BME280;71992;52.478;-1.918;2023-09-19T12:18:27;98215.84;;;16.32;100.00
63607;BME280;71992;52.478;-1.918;2023-09-19T12:20:58;98215.00;;;16.31;100.00
63607;BME280;71992;52.478;-1.918;2023-09-19T12:23:33;98226.97;;;16.28;100.00
63607;BME280;71992;52.478;-1.918;2023-09-19T12:26:05;98219.72;;;16.29;100.00
63607;BME280;71992;52.478;-1.918;2023-09-19T12:28:41;98212.16;;;16.24;100.00
63607;BME280;71992;52.478;-1.918;2023-09-19T12:31:12;98216.72;;;16.24;100.00
63607;BME280;71992;52.478;-1.918;2023-09-19T12:33:45;98220.09;;;16.26;100.00
63607;BME280;71992;52.478;-1.918;2023-09-19T12:36:20;98216.53;;;16.25;100.00
63607;BME280;71992;52.478;-1.918;2023-09-19T12:38:56;98212.00;;;16.26;100.00
63607;BME280;71992;52.478;-1.918;2023-09-19T12:41:29;98199.38;;;16.26;100.00
63607;BME280;71992;52.478;-1.918;2023-09-19T12:44:02;98211.34;;;16.24;100.00
63607;BME280;71992;52.478;-1.918;2023-09-19T12:46:37;98190.78;;;16.23;100.00
63607;BME280;71992;52.478;-1.918;2023-09-19T12:49:16;98206.78;;;16.24;100.00
63607;BME280;71992;52.478;-1.918;2023-09-19T12:51:48;98207.78;;;16.23;100.00
63607;BME280;71992;52.478;-1.918;2023-09-19T12:54:23;98197.00;;;16.23;100.00
63607;BME280;71992;52.478;-1.918;2023-09-19T12:56:55;98206.78;;;16.24;100.00
63607;BME280;71992;52.478;-1.918;2023-09-19T12:59:29;98204.75;;;16.26;100.00
63607;BME280;71992;52.478;-1.918;2023-09-19T13:02:05;98204.41;;;16.29;100.00
63607;BME280;71992;52.478;-1.918;2023-09-19T13:04:52;98205.22;;;16.30;100.00
63607;BME280;71992;52.478;-1.918;2023-09-19T13:07:40;98213.16;;;16.32;100.00
63607;BME280;71992;52.478;-1.918;2023-09-19T13:10:16;98205.06;;;16.32;100.00
63607;BME280;71992;52.478;-1.918;2023-09-19T13:12:52;98208.44;;;16.34;100.00
63607;BME280;71992;52.478;-1.918;2023-09-19T13:15:22;98211.78;;;16.36;100.00
63607;BME280;71992;52.478;-1.918;2023-09-19T13:17:57;98201.84;;;16.36;100.00
63607;BME280;71992;52.478;-1.918;2023-09-19T13:20:30;98204.19;;;16.39;100.00
63607;BME280;71992;52.478;-1.918;2023-09-19T13:23:26;98208.19;;;16.43;100.00
63607;BME280;71992;52.478;-1.918;2023-09-19T13:25:59;98207.19;;;16.44;100.00